Time;durP1;ratioP1;P1;durP2;ratioP2;P2;SDS_P1;SDS_P2;PMS_P1;PMS_P2;Temp;Humidity;BMP_temperature;BMP_pressure;BME280_temperature;BME280_humidity;BME280_pressure;Samples;Min_cycle;Max_cycle;Signal;HPM_P1;HPM_P2
2022/02/28 00:02:15;;;;;;;;;;;4.10;99.90;;;2.36;68.89;102700.91;2567562;30;136622;-39
2022/02/28 00:04:42;;;;;;;;;;;4.10;99.90;;;2.34;68.85;102687.53;2569243;30;138179;-40
2022/02/28 00:07:10;;;;;;;;;;;4.10;99.90;;;2.39;69.53;102701.56;2569361;30;136869;-40
2022/02/28 00:09:37;;;;;;;;;;;4.10;99.90;;;2.34;69.98;102700.16;2566399;30;137937;-40
2022/02/28 00:12:05;;;;;;;;;;;4.10;99.90;;;2.27;69.15;102702.44;2567974;30;137241;-40
2022/02/28 00:14:32;;;;;;;;;;;4.10;99.90;;;2.37;69.02;102706.16;2567088;30;138245;-39
2022/02/28 00:17:00;;;;;;;;;;;4.00;99.90;;;2.37;69.11;102706.16;2569280;30;137073;-40
2022/02/28 00:19:29;;;;;;;;;;;4.10;99.90;;;2.46;68.28;102707.31;2569179;30;138288;-40
2022/02/28 00:21:57;;;;;;;;;;;4.10;99.90;;;2.40;68.33;102705.97;2566607;30;136944;-39
2022/02/28 00:24:24;;;;;;;;;;;4.10;99.90;;;2.32;69.21;102707.50;2568075;30;138412;-39
2022/02/28 00:26:52;;;;;;;;;;;4.10;99.90;;;2.41;69.06;102706.81;2569493;30;137280;-40
2022/02/28 00:29:20;;;;;;;;;;;4.10;99.90;;;2.43;68.64;102700.34;2568483;30;138191;-39
2022/02/28 00:31:47;;;;;;;;;;;4.10;99.90;;;2.29;69.21;102719.34;2569298;30;137232;-39
2022/02/28 00:34:14;;;;;;;;;;;4.10;99.90;;;2.19;69.81;102715.59;2566523;30;137921;-40
2022/02/28 00:36:42;;;;;;;;;;;4.00;99.90;;;2.14;69.11;102715.91;2569321;30;137138;-39
2022/02/28 00:39:09;;;;;;;;;;;3.90;99.90;;;2.05;69.81;102714.75;2569118;30;137288;-40
2022/02/28 00:41:38;;;;;;;;;;;3.90;99.90;;;1.99;70.13;102716.06;2565343;30;137083;-40
2022/02/28 00:44:07;;;;;;;;;;;3.80;99.90;;;2.00;70.51;102722.28;2568971;30;137374;-39
2022/02/28 00:46:35;;;;;;;;;;;3.70;99.90;;;1.95;70.94;102729.84;2566373;30;137838;-40
2022/02/28 00:49:03;;;;;;;;;;;3.70;99.90;;;1.95;71.08;102730.69;2568493;30;138808;-40
2022/02/28 00:51:30;;;;;;;;;;;3.70;99.90;;;1.91;71.06;102728.34;2568174;30;137881;-40
2022/02/28 00:54:22;;;;;;;;;;;3.70;99.90;;;1.86;70.68;102726.84;2568428;30;138194;-39
2022/02/28 00:56:50;;;;;;;;;;;3.60;99.90;;;1.93;70.60;102729.09;2575912;30;137898;-41
2022/02/28 06:58:26;;;;;;;;;;;3.70;99.90;;;-0.56;84.67;102712.09;2566977;30;137128;-39
2022/02/28 07:00:54;;;;;;;;;;;1.30;99.90;;;-0.41;83.91;102727.22;2568300;30;138715;-40
2022/02/28 07:03:42;;;;;;;;;;;1.30;99.90;;;-0.29;84.21;102720.25;2568076;30;137064;-39
2022/02/28 07:06:20;;;;;;;;;;;1.40;99.90;;;-0.22;82.82;102724.31;2568734;30;136966;-40
2022/02/28 07:08:48;;;;;;;;;;;1.50;99.90;;;-0.11;82.93;102730.81;2569194;30;136795;-39
2022/02/28 07:11:16;;;;;;;;;;;1.60;99.90;;;0.00;82.24;102728.34;2566698;30;136795;-39
2022/02/28 07:13:43;;;;;;;;;;;1.70;99.90;;;0.04;81.63;102723.63;2568156;30;138909;-39
2022/02/28 07:16:11;;;;;;;;;;;1.80;99.90;;;0.15;81.59;102723.81;2568156;30;138372;-40
2022/02/28 07:18:38;;;;;;;;;;;1.80;99.90;;;0.20;81.11;102710.97;2568920;30;138265;-39
2022/02/28 07:21:07;;;;;;;;;;;2.00;99.90;;;0.32;81.01;102722.75;2569160;30;136993;-39
2022/02/28 07:23:34;;;;;;;;;;;2.00;99.90;;;0.37;81.10;102717.94;2568621;30;138280;-39
2022/02/28 07:26:02;;;;;;;;;;;2.10;99.90;;;0.58;80.56;102728.25;2568457;30;138092;-40
2022/02/28 07:28:29;;;;;;;;;;;2.20;99.90;;;0.70;79.62;102724.75;2568669;30;138883;-39
2022/02/28 07:30:57;;;;;;;;;;;2.30;99.90;;;0.76;79.10;102723.50;2569321;30;136678;-39
2022/02/28 07:33:24;;;;;;;;;;;2.40;99.90;;;0.87;79.08;102722.78;2568627;30;137767;-40
2022/02/28 07:35:52;;;;;;;;;;;2.50;99.90;;;0.97;79.57;102718.53;2567796;30;137854;-40
2022/02/28 07:38:19;;;;;;;;;;;2.60;99.90;;;1.04;78.00;102713.59;2568375;30;138308;-39
2022/02/28 07:40:46;;;;;;;;;;;2.60;99.90;;;1.14;77.29;102716.53;2566308;30;138134;-39
2022/02/28 07:43:14;;;;;;;;;;;2.70;99.90;;;1.24;76.91;102709.56;2569503;30;139227;-40
2022/02/28 07:45:41;;;;;;;;;;;2.80;99.90;;;1.42;76.58;102717.34;2569473;30;137129;-40
2022/02/28 07:48:09;;;;;;;;;;;3.00;99.90;;;1.56;75.19;102711.84;2568310;30;138404;-39
2022/02/28 07:50:36;;;;;;;;;;;3.10;99.90;;;1.69;74.75;102711.00;2565988;30;136999;-40
2022/02/28 07:53:03;;;;;;;;;;;3.30;99.90;;;1.80;74.16;102712.94;2567676;30;138183;-39
2022/02/28 07:55:31;;;;;;;;;;;3.30;99.90;;;1.88;73.68;102709.72;2569183;30;137316;-40
2022/02/28 07:57:58;;;;;;;;;;;3.40;99.90;;;2.01;72.96;102714.13;2567094;30;138181;-39
2022/02/28 08:00:26;;;;;;;;;;;3.50;99.90;;;2.08;73.17;102717.22;2568590;30;136730;-40
2022/02/28 08:02:53;;;;;;;;;;;3.60;99.90;;;2.21;72.73;102724.44;2567538;30;138460;-40
2022/02/28 08:05:21;;;;;;;;;;;3.70;99.90;;;2.30;71.60;102712.97;2567391;30;137104;-39
2022/02/28 08:07:48;;;;;;;;;;;3.80;99.90;;;2.41;70.71;102714.91;2569220;30;138320;-40
2022/02/28 08:10:16;;;;;;;;;;;3.90;99.90;;;2.52;71.09;102723.06;2568674;30;137237;-40
2022/02/28 08:12:43;;;;;;;;;;;4.00;99.90;;;2.62;70.46;102725.06;2567795;30;137853;-40
2022/02/28 08:15:11;;;;;;;;;;;4.10;99.90;;;2.71;70.50;102716.28;2568080;30;137048;-40
2022/02/28 08:17:39;;;;;;;;;;;4.20;99.90;;;2.81;69.72;102729.97;2567585;30;138185;-40
2022/02/28 08:20:09;;;;;;;;;;;4.30;99.90;;;2.91;69.11;102733.66;2569301;30;136728;-40
2022/02/28 08:22:36;;;;;;;;;;;4.40;99.90;;;3.02;68.09;102733.75;2567260;30;138650;-40
2022/02/28 08:25:05;;;;;;;;;;;4.50;99.90;;;3.13;68.13;102722.16;2570040;30;137019;-40
2022/02/28 08:27:32;;;;;;;;;;;4.60;99.90;;;3.22;67.12;102746.69;2568786;30;138518;-40
2022/02/28 08:30:00;;;;;;;;;;;4.70;99.90;;;3.30;66.85;102747.84;2567153;30;137433;-39
2022/02/28 08:32:27;;;;;;;;;;;4.80;99.90;;;3.40;66.95;102736.31;2568037;30;138165;-40
2022/02/28 08:34:55;;;;;;;;;;;4.90;99.90;;;3.49;66.70;102746.44;2569327;30;137178;-40
2022/02/28 08:37:23;;;;;;;;;;;5.00;99.90;;;3.55;65.92;102742.38;2568445;30;138211;-39
2022/02/28 08:39:50;;;;;;;;;;;5.10;99.90;;;3.64;65.13;102735.41;2568150;30;137038;-39
2022/02/28 08:42:18;;;;;;;;;;;5.10;99.90;;;3.71;64.15;102740.22;2567759;30;137945;-40
2022/02/28 08:44:45;;;;;;;;;;;5.20;99.90;;;3.75;63.97;102748.94;2568059;30;137158;-39
2022/02/28 08:47:13;;;;;;;;;;;5.30;99.90;;;3.81;62.97;102753.84;2569767;30;137586;-39
2022/02/28 08:49:40;;;;;;;;;;;5.30;99.90;;;3.89;63.91;102737.06;2568597;30;136920;-40
2022/02/28 08:52:08;;;;;;;;;;;5.40;99.90;;;3.99;64.71;102745.28;2567525;30;138088;-40
2022/02/28 08:54:36;;;;;;;;;;;5.50;99.90;;;4.02;63.02;102735.09;2568766;30;136545;-39
2022/02/28 08:57:05;;;;;;;;;;;5.60;99.90;;;4.12;63.50;102740.63;2564771;30;139270;-40
2022/02/28 08:59:34;;;;;;;;;;;5.60;99.90;;;4.15;62.28;102731.41;2568069;30;136751;-39
2022/02/28 09:02:03;;;;;;;;;;;5.70;99.90;;;4.30;61.15;102745.53;2567886;30;137809;-40
2022/02/28 09:04:34;;;;;;;;;;;5.80;99.90;;;4.34;61.04;102749.72;2567509;30;137043;-39
2022/02/28 09:07:02;;;;;;;;;;;5.80;99.90;;;4.39;62.59;102746.63;2567783;30;138399;-40
2022/02/28 09:09:30;;;;;;;;;;;5.90;99.90;;;4.46;61.63;102758.66;2567944;30;137342;-39
2022/02/28 09:11:57;;;;;;;;;;;6.00;99.90;;;4.55;59.47;102751.66;2568940;30;138473;-40
2022/02/28 09:14:24;;;;;;;;;;;6.00;99.90;;;4.63;60.20;102751.88;2568748;30;137037;-39
2022/02/28 09:16:52;;;;;;;;;;;6.10;99.90;;;4.70;61.52;102750.38;2567092;30;137501;-39
2022/02/28 09:19:19;;;;;;;;;;;6.20;99.90;;;4.83;60.31;102746.69;2567785;30;136983;-39
2022/02/28 09:21:47;;;;;;;;;;;6.30;99.90;;;4.92;60.77;102743.19;2567403;30;139168;-39
2022/02/28 09:24:15;;;;;;;;;;;6.40;99.90;;;5.00;59.67;102743.41;2565867;30;137078;-39
2022/02/28 09:26:43;;;;;;;;;;;6.40;99.90;;;5.12;58.72;102738.81;2569328;30;140061;-40
2022/02/28 09:29:11;;;;;;;;;;;6.50;99.90;;;5.21;59.95;102730.94;2568203;30;137070;-40
2022/02/28 09:31:38;;;;;;;;;;;6.60;99.90;;;5.35;59.24;102729.75;2568780;30;137240;-40
2022/02/28 09:34:06;;;;;;;;;;;6.70;99.90;;;5.53;59.98;102741.69;2567016;30;137154;-40
2022/02/28 09:36:33;;;;;;;;;;;6.80;99.90;;;5.63;58.64;102730.09;2568266;30;137278;-40
2022/02/28 09:39:03;;;;;;;;;;;7.00;99.90;;;5.76;59.11;102746.97;2567446;30;137260;-40
2022/02/28 09:41:52;;;;;;;;;;;7.10;99.90;;;5.82;57.48;102735.59;2565871;30;140326;-40
2022/02/28 09:44:39;;;;;;;;;;;7.20;99.90;;;5.93;57.33;102733.81;2567430;30;136703;-40
2022/02/28 09:47:36;;;;;;;;;;;7.30;99.90;;;6.00;55.66;102738.56;2568661;30;136920;-40
2022/02/28 09:50:26;;;;;;;;;;;7.40;99.90;;;6.02;55.78;102733.91;2566582;30;136744;-40
2022/02/28 09:53:18;;;;;;;;;;;7.50;99.90;;;6.03;55.54;102742.88;2566560;30;138096;-40
2022/02/28 09:56:04;;;;;;;;;;;7.50;99.90;;;6.07;55.16;102736.19;2567641;30;136980;-40
2022/02/28 09:58:49;;;;;;;;;;;7.50;99.90;;;6.21;55.98;102739.53;2567731;30;137162;-40
2022/02/28 10:01:17;;;;;;;;;;;7.60;99.90;;;6.24;53.83;102744.69;2567447;30;138523;-40
2022/02/28 10:03:47;;;;;;;;;;;7.60;99.50;;;6.24;54.77;102736.53;2567643;30;139581;-40
2022/02/28 10:06:15;;;;;;;;;;;7.70;99.90;;;6.33;55.65;102743.84;2567337;30;137145;-39
2022/02/28 10:08:50;;;;;;;;;;;7.70;99.90;;;6.36;53.91;102751.69;2567673;30;139156;-39
2022/02/28 10:11:32;;;;;;;;;;;7.80;99.10;;;6.37;54.32;102750.72;2565656;30;136583;-40
2022/02/28 10:14:05;;;;;;;;;;;7.80;99.60;;;6.49;54.96;102754.16;2567876;30;138132;-39
2022/02/28 10:16:40;;;;;;;;;;;7.90;99.50;;;6.62;54.00;102751.19;2568756;30;137294;-40
2022/02/28 10:19:29;;;;;;;;;;;8.00;99.20;;;6.68;52.97;102747.09;2570635;30;138216;-39
2022/02/28 10:22:03;;;;;;;;;;;8.10;98.60;;;6.71;52.25;102744.97;2568570;30;138096;-39
2022/02/28 10:24:34;;;;;;;;;;;8.10;97.80;;;6.73;51.17;102763.78;2568547;30;138347;-39
2022/02/28 10:27:15;;;;;;;;;;;8.20;97.10;;;6.84;52.38;102760.09;2570076;30;136735;-39
2022/02/28 10:29:48;;;;;;;;;;;8.20;97.50;;;6.93;52.18;102764.72;2569506;30;137550;-40
2022/02/28 10:32:51;;;;;;;;;;;8.30;97.70;;;6.99;52.74;102756.00;2567139;30;137062;-40
2022/02/28 10:38:53;;;;;;;;;;;8.50;97.90;;;7.30;53.49;102747.72;2569598;30;137109;-39
2022/02/28 10:41:30;;;;;;;;;;;8.60;98.40;;;7.38;52.56;102747.00;2568072;30;138003;-40
2022/02/28 10:43:59;;;;;;;;;;;8.70;98.30;;;7.45;50.03;102741.84;2568567;30;136842;-39
2022/02/28 10:46:36;;;;;;;;;;;8.80;95.90;;;7.43;50.22;102735.72;2568369;30;139091;-40
2022/02/28 10:49:07;;;;;;;;;;;8.90;95.70;;;7.51;49.20;102745.84;2569243;30;137147;-39
2022/02/28 10:51:49;;;;;;;;;;;8.90;95.20;;;7.54;49.55;102751.84;2567403;30;139052;-39
2022/02/28 10:54:22;;;;;;;;;;;8.90;95.30;;;7.59;49.58;102749.53;2569462;30;137208;-39
2022/02/28 10:56:53;;;;;;;;;;;9.00;95.00;;;7.61;48.73;102739.38;2568686;30;138116;-40
2022/02/28 10:59:30;;;;;;;;;;;9.00;94.60;;;7.72;49.46;102734.81;2568841;30;137976;-40
2022/02/28 11:01:59;;;;;;;;;;;9.10;94.90;;;7.88;50.03;102737.75;2566678;30;138270;-39
2022/02/28 11:04:36;;;;;;;;;;;9.20;95.30;;;7.93;48.73;102726.44;2568572;30;137177;-40
2022/02/28 11:07:06;;;;;;;;;;;9.30;94.60;;;8.00;48.03;102727.56;2569246;30;137034;-40
2022/02/28 11:09:35;;;;;;;;;;;9.30;93.60;;;8.10;47.28;102738.38;2568542;30;136785;-40
2022/02/28 11:12:19;;;;;;;;;;;9.40;93.30;;;8.15;48.48;102727.91;2569825;30;137157;-39
2022/02/28 11:14:47;;;;;;;;;;;9.50;93.70;;;8.29;49.22;102725.72;2567089;30;137484;-40
2022/02/28 11:17:17;;;;;;;;;;;9.60;94.20;;;8.42;49.76;102717.22;2567779;30;138087;-40
2022/02/28 11:19:46;;;;;;;;;;;9.70;94.90;;;8.49;47.15;102711.06;2567655;30;137982;-40
2022/02/28 11:22:14;;;;;;;;;;;9.80;93.10;;;8.56;46.15;102705.00;2568363;30;138479;-40
2022/02/28 11:24:43;;;;;;;;;;;9.80;92.20;;;8.53;47.72;102706.13;2567849;30;138581;-39
2022/02/28 11:27:11;;;;;;;;;;;9.90;92.70;;;8.66;48.34;102711.22;2568543;30;138246;-39
2022/02/28 11:29:40;;;;;;;;;;;10.00;93.30;;;8.63;45.93;102708.81;2567768;30;137838;-40
2022/02/28 11:32:08;;;;;;;;;;;10.00;91.30;;;8.72;47.01;102696.97;2566957;30;138648;-40
2022/02/28 11:34:36;;;;;;;;;;;10.00;92.30;;;8.88;47.05;102698.16;2568456;30;136795;-40
2022/02/28 11:37:05;;;;;;;;;;;10.10;92.50;;;8.92;46.84;102700.44;2568346;30;139266;-40
2022/02/28 11:39:40;;;;;;;;;;;10.20;92.10;;;8.96;47.22;102695.50;2567751;30;137150;-39
2022/02/28 11:42:09;;;;;;;;;;;10.30;92.50;;;8.96;47.08;102694.69;2568588;30;137902;-40
2022/02/28 11:44:56;;;;;;;;;;;10.30;91.80;;;8.98;45.96;102685.31;2567999;30;136702;-39
2022/02/28 11:47:25;;;;;;;;;;;10.30;90.50;;;9.09;46.92;102680.66;2568186;30;138854;-40
2022/02/28 11:49:54;;;;;;;;;;;10.40;91.80;;;9.21;45.41;102682.13;2569282;30;137096;-40
2022/02/28 11:52:28;;;;;;;;;;;10.50;90.70;;;9.37;45.08;102680.53;2568208;30;138199;-40
2022/02/28 11:55:04;;;;;;;;;;;10.60;90.60;;;9.39;44.96;102673.91;2569408;30;137552;-39
2022/02/28 11:57:51;;;;;;;;;;;10.70;89.60;;;9.50;45.02;102680.97;2568424;30;137218;-40
2022/02/28 12:00:37;;;;;;;;;;;10.70;90.40;;;9.48;45.54;102672.09;2568508;30;137166;-39
2022/02/28 12:03:36;;;;;;;;;;;10.80;88.80;;;9.54;46.33;102666.00;2565110;30;138201;-40
2022/02/28 12:06:04;;;;;;;;;;;10.80;90.00;;;9.60;44.17;102669.97;2567654;30;137796;-40
2022/02/28 12:08:36;;;;;;;;;;;10.90;88.20;;;9.69;44.51;102660.84;2566394;30;138302;-40
2022/02/28 12:11:35;;;;;;;;;;;11.00;88.50;;;9.83;45.15;102672.13;2568653;30;136879;-40
2022/02/28 12:14:07;;;;;;;;;;;11.10;90.10;;;9.91;43.93;102656.69;2567264;30;139166;-39
2022/02/28 12:19:47;;;;;;;;;;;11.30;87.90;;;9.97;42.02;102657.91;2566746;30;139339;-39
2022/02/28 12:22:14;;;;;;;;;;;11.30;84.00;;;10.06;43.37;102645.13;2569330;30;137020;-40
2022/02/28 12:24:54;;;;;;;;;;;11.30;85.50;;;10.11;43.40;102642.78;2570007;30;138163;-40
2022/02/28 12:27:31;;;;;;;;;;;11.40;85.50;;;10.10;43.78;102643.81;2566762;30;137729;-39
2022/02/28 12:29:59;;;;;;;;;;;11.40;84.70;;;10.20;43.45;102647.25;2568693;30;138614;-40
2022/02/28 12:32:49;;;;;;;;;;;11.50;85.80;;;10.28;41.98;102640.97;2568224;30;136924;-40
2022/02/28 12:35:20;;;;;;;;;;;11.50;84.60;;;10.25;40.92;102640.44;2568088;30;139402;-39
2022/02/28 12:37:48;;;;;;;;;;;11.60;81.10;;;10.28;41.74;102640.09;2568400;30;136987;-40
2022/02/28 12:40:15;;;;;;;;;;;11.60;81.90;;;10.33;41.88;102654.09;2568872;30;137518;-40
2022/02/28 12:42:46;;;;;;;;;;;11.60;81.50;;;10.34;42.90;102647.63;2568499;30;136772;-40
2022/02/28 12:45:14;;;;;;;;;;;11.60;83.30;;;10.43;42.39;102641.22;2568319;30;138108;-39
2022/02/28 12:47:41;;;;;;;;;;;11.70;82.30;;;10.49;41.84;102637.81;2568519;30;138032;-39
2022/02/28 12:50:09;;;;;;;;;;;11.80;81.40;;;10.57;41.45;102636.09;2568113;30;137090;-40
2022/02/28 12:52:50;;;;;;;;;;;11.80;81.20;;;10.65;41.16;102630.66;2569054;30;136937;-40
2022/02/28 12:55:18;;;;;;;;;;;11.90;79.80;;;10.69;41.95;102632.03;2568126;30;139085;-40
2022/02/28 12:57:48;;;;;;;;;;;11.90;81.40;;;10.69;43.55;102621.13;2578540;30;139124;-41
2022/02/28 13:00:16;;;;;;;;;;;12.00;83.50;;;10.69;40.99;102615.66;2567884;30;138026;-41
2022/02/28 13:03:03;;;;;;;;;;;12.00;79.70;;;10.78;41.43;102620.09;2568863;30;138211;-40
2022/02/28 13:05:30;;;;;;;;;;;12.00;81.30;;;10.82;42.26;102620.63;2569821;30;137126;-41
2022/02/28 13:08:04;;;;;;;;;;;12.10;81.60;;;10.82;41.62;102620.63;2567977;30;137899;-41
2022/02/28 13:10:33;;;;;;;;;;;12.10;81.20;;;10.84;40.81;102607.66;2569706;30;138345;-40
2022/02/28 13:13:03;;;;;;;;;;;12.20;79.80;;;10.96;40.89;102619.06;2569950;30;137981;-41
2022/02/28 13:15:43;;;;;;;;;;;12.20;79.40;;;10.99;39.00;102610.53;2570487;30;138336;-41
2022/02/28 13:18:10;;;;;;;;;;;12.30;77.50;;;11.01;39.50;102613.94;2568156;30;136939;-42
2022/02/28 13:20:46;;;;;;;;;;;12.30;78.10;;;11.16;40.62;102621.47;2569678;30;138541;-41
2022/02/28 13:23:14;;;;;;;;;;;12.40;80.90;;;11.20;39.15;102611.88;2571470;30;137893;-42
2022/02/28 13:25:49;;;;;;;;;;;12.40;77.10;;;11.24;37.70;102610.50;2567681;30;137576;-42
2022/02/28 13:28:17;;;;;;;;;;;12.50;75.70;;;11.23;39.04;102608.81;2569546;30;136885;-41
2022/02/28 13:30:44;;;;;;;;;;;12.50;76.80;;;11.27;38.53;102601.97;2570516;30;137843;-41
2022/02/28 13:33:12;;;;;;;;;;;12.60;76.00;;;11.28;38.22;102590.00;2569000;30;137237;-41
2022/02/28 13:35:40;;;;;;;;;;;12.60;75.10;;;11.28;37.71;102589.16;2571777;30;138241;-41
2022/02/28 13:38:07;;;;;;;;;;;12.60;74.60;;;11.35;39.39;102593.75;2569396;30;137554;-41
2022/02/28 13:40:34;;;;;;;;;;;12.60;77.40;;;11.39;37.92;102593.38;2566705;30;137624;-43
2022/02/28 13:43:08;;;;;;;;;;;12.70;75.00;;;11.36;38.01;102579.06;2568292;30;137215;-41
2022/02/28 13:45:37;;;;;;;;;;;12.70;74.80;;;11.50;39.02;102588.41;2568151;30;139408;-41
2022/02/28 13:48:22;;;;;;;;;;;12.70;76.60;;;11.59;37.82;102582.94;2566997;30;137441;-41
2022/02/28 13:50:51;;;;;;;;;;;12.80;73.40;;;11.72;37.79;102576.91;2569297;30;138332;-41
2022/02/28 13:53:19;;;;;;;;;;;12.90;74.10;;;11.72;37.43;102580.47;2568666;30;137409;-41
2022/02/28 13:55:48;;;;;;;;;;;12.90;74.10;;;11.68;37.79;102572.81;2569588;30;138515;-41
2022/02/28 13:58:16;;;;;;;;;;;13.00;73.70;;;11.59;36.83;102564.63;2568013;30;137053;-41
2022/02/28 14:00:55;;;;;;;;;;;13.00;72.70;;;11.69;35.46;102575.38;2569053;30;137431;-42
2022/02/28 14:03:25;;;;;;;;;;;13.00;69.90;;;11.70;35.54;102566.13;2569578;30;136814;-41
2022/02/28 14:05:54;;;;;;;;;;;13.00;70.30;;;11.74;35.03;102558.44;2567622;30;139985;-41
2022/02/28 14:08:26;;;;;;;;;;;13.00;69.40;;;11.76;36.49;102556.38;2569537;30;137238;-41
2022/02/28 14:11:01;;;;;;;;;;;13.00;71.10;;;11.76;35.92;102564.56;2568360;30;138910;-41
2022/02/28 14:13:40;;;;;;;;;;;13.00;70.10;;;11.79;34.46;102561.47;2569576;30;137000;-41
2022/02/28 14:16:32;;;;;;;;;;;13.10;68.10;;;11.82;34.40;102550.19;2568098;30;137269;-42
2022/02/28 14:19:03;;;;;;;;;;;13.10;68.70;;;11.83;36.98;102553.78;2567704;30;137441;-40
2022/02/28 14:21:33;;;;;;;;;;;13.10;71.40;;;11.89;35.86;102564.00;2570853;30;139915;-41
2022/02/28 14:24:22;;;;;;;;;;;13.10;69.80;;;11.89;36.64;102556.63;2569241;30;136918;-40
2022/02/28 14:27:08;;;;;;;;;;;13.20;70.30;;;11.91;36.44;102551.81;2569204;30;137353;-41
2022/02/28 14:30:11;;;;;;;;;;;13.20;69.90;;;11.88;35.00;102560.41;2566734;30;137105;-41
2022/02/28 14:33:07;;;;;;;;;;;13.20;68.30;;;11.92;36.35;102549.97;2567438;30;137631;-41
2022/02/28 14:35:37;;;;;;;;;;;13.20;71.20;;;11.96;36.19;102542.25;2569625;30;136825;-41
2022/02/28 14:38:05;;;;;;;;;;;13.20;69.60;;;11.94;34.91;102558.84;2569061;30;136907;-41
2022/02/28 14:40:34;;;;;;;;;;;13.20;67.80;;;11.85;35.96;102554.44;2569454;30;137181;-42
2022/02/28 14:43:02;;;;;;;;;;;13.20;68.50;;;11.82;36.02;102560.28;2569132;30;138290;-41
2022/02/28 14:45:31;;;;;;;;;;;13.10;69.20;;;11.82;36.38;102558.38;2568911;30;137981;-41
2022/02/28 14:47:59;;;;;;;;;;;13.10;69.00;;;11.82;36.25;102560.28;2569064;30;138167;-42
2022/02/28 14:50:26;;;;;;;;;;;13.10;69.70;;;11.82;36.00;102573.97;2569231;30;137169;-42
2022/02/28 14:52:55;;;;;;;;;;;13.00;69.20;;;11.74;34.65;102570.22;2569731;30;138390;-42
2022/02/28 14:55:23;;;;;;;;;;;13.00;67.00;;;11.72;35.80;102568.69;2568242;30;138431;-41
2022/02/28 14:57:51;;;;;;;;;;;13.00;68.30;;;11.75;35.10;102568.34;2569833;30;137201;-41
2022/02/28 15:00:21;;;;;;;;;;;13.00;67.30;;;11.72;34.20;102568.69;2567922;30;137891;-41
2022/02/28 15:02:49;;;;;;;;;;;13.00;66.00;;;11.55;36.03;102576.13;2570824;30;140221;-41
2022/02/28 15:05:17;;;;;;;;;;;12.90;68.70;;;11.47;36.28;102577.81;2570072;30;137869;-42
2022/02/28 15:07:45;;;;;;;;;;;12.80;68.20;;;11.49;37.96;102573.03;2568300;30;137817;-41
2022/02/28 15:10:13;;;;;;;;;;;12.80;70.90;;;11.46;37.40;102572.56;2570623;30;138005;-42
2022/02/28 15:12:40;;;;;;;;;;;12.70;69.50;;;11.37;36.76;102558.06;2567764;30;139174;-41
2022/02/28 15:15:08;;;;;;;;;;;12.70;69.30;;;11.32;37.20;102561.31;2567640;30;138389;-41
2022/02/28 15:17:36;;;;;;;;;;;12.70;69.40;;;11.29;36.44;102561.66;2571642;30;138263;-41
2022/02/28 15:20:04;;;;;;;;;;;12.60;68.60;;;11.23;36.49;102551.44;2568085;30;137587;-41
2022/02/28 15:22:31;;;;;;;;;;;12.60;68.70;;;11.08;36.74;102554.88;2568389;30;138269;-42
2022/02/28 15:24:58;;;;;;;;;;;12.50;68.80;;;10.98;37.18;102548.75;2568979;30;137408;-41
2022/02/28 15:27:26;;;;;;;;;;;12.40;69.30;;;10.98;38.88;102554.22;2569075;30;139078;-41
2022/02/28 15:29:53;;;;;;;;;;;12.30;71.60;;;10.91;36.47;102548.59;2568703;30;136893;-41
2022/02/28 15:32:20;;;;;;;;;;;12.30;68.50;;;10.86;39.22;102544.66;2570408;30;138133;-41
2022/02/28 15:34:48;;;;;;;;;;;12.20;72.00;;;10.77;38.44;102538.38;2569670;30;137005;-41
2022/02/28 15:37:16;;;;;;;;;;;12.20;71.10;;;10.77;38.77;102539.22;2571361;30;138223;-41
2022/02/28 15:39:44;;;;;;;;;;;12.10;71.30;;;10.69;39.22;102530.16;2570574;30;136787;-41
2022/02/28 15:42:15;;;;;;;;;;;12.10;71.80;;;10.65;38.24;102535.97;2570211;30;137357;-41
2022/02/28 15:44:42;;;;;;;;;;;12.00;70.50;;;10.60;38.80;102540.22;2569468;30;136854;-41
2022/02/28 15:47:11;;;;;;;;;;;12.00;71.30;;;10.52;39.55;102523.88;2571373;30;138137;-42
2022/02/28 15:49:38;;;;;;;;;;;11.90;72.30;;;10.41;38.99;102528.66;2569051;30;136871;-41
2022/02/28 15:52:06;;;;;;;;;;;11.80;71.40;;;10.30;39.39;102528.94;2568597;30;139278;-41
2022/02/28 15:54:34;;;;;;;;;;;11.70;71.80;;;10.18;39.08;102518.38;2568096;30;137009;-41
2022/02/28 15:57:05;;;;;;;;;;;11.60;71.00;;;10.10;38.38;102521.09;2570167;30;139187;-41
2022/02/28 15:59:36;;;;;;;;;;;11.60;70.40;;;10.03;37.80;102517.31;2569838;30;136829;-41
2022/02/28 16:02:06;;;;;;;;;;;11.50;69.60;;;9.87;39.99;102519.00;2569679;30;138129;-41
2022/02/28 16:04:33;;;;;;;;;;;11.40;72.20;;;9.79;39.90;102506.19;2568678;30;137177;-43
2022/02/28 16:07:03;;;;;;;;;;;11.30;72.50;;;9.64;40.34;102505.97;2569557;30;137257;-41
2022/02/28 16:09:31;;;;;;;;;;;11.10;72.60;;;9.55;39.86;102487.03;2569143;30;137145;-41
2022/02/28 16:12:02;;;;;;;;;;;11.10;72.00;;;9.50;41.28;102484.78;2570661;30;137288;-41
2022/02/28 16:14:30;;;;;;;;;;;11.00;74.40;;;9.42;41.74;102485.63;2570711;30;136731;-41
2022/02/28 16:16:58;;;;;;;;;;;10.90;74.60;;;9.27;41.11;102479.94;2569120;30;138325;-41
2022/02/28 16:19:27;;;;;;;;;;;10.80;73.50;;;9.23;40.18;102477.72;2569306;30;137739;-41
2022/02/28 16:21:57;;;;;;;;;;;10.70;72.40;;;9.23;40.44;102480.44;2567237;30;139440;-41
2022/02/28 16:24:25;;;;;;;;;;;10.70;72.90;;;9.16;40.84;102474.78;2567861;30;137307;-41
2022/02/28 16:26:52;;;;;;;;;;;10.60;73.10;;;9.06;40.97;102483.06;2569337;30;137267;-41
2022/02/28 16:29:19;;;;;;;;;;;10.50;73.40;;;8.90;41.95;102484.69;2566422;30;137778;-41
2022/02/28 16:31:47;;;;;;;;;;;10.40;74.70;;;8.75;41.97;102481.72;2569591;30;138563;-41
2022/02/28 16:34:14;;;;;;;;;;;10.30;74.40;;;8.71;42.08;102472.13;2569339;30;136954;-41
2022/02/28 16:36:41;;;;;;;;;;;10.30;75.20;;;8.68;42.81;102485.22;2570162;30;139456;-41
2022/02/28 16:39:09;;;;;;;;;;;10.20;75.90;;;8.56;42.45;102481.91;2570200;30;137103;-40
2022/02/28 16:41:37;;;;;;;;;;;10.10;75.20;;;8.52;41.37;102481.34;2567972;30;139100;-41
2022/02/28 16:44:06;;;;;;;;;;;10.00;73.70;;;8.48;41.44;102486.22;2569433;30;138181;-40
2022/02/28 16:46:36;;;;;;;;;;;10.00;74.20;;;8.39;42.29;102480.88;2570693;30;138191;-42
2022/02/28 16:49:05;;;;;;;;;;;9.90;74.90;;;8.33;42.50;102476.94;2568355;30;138041;-41
2022/02/28 16:51:33;;;;;;;;;;;9.90;74.90;;;8.17;43.03;102474.91;2568792;30;138395;-41
2022/02/28 16:54:00;;;;;;;;;;;9.80;75.70;;;8.05;43.45;102474.31;2567612;30;138612;-41
2022/02/28 16:56:28;;;;;;;;;;;9.70;76.20;;;8.07;44.46;102475.00;2567876;30;138547;-39
2022/02/28 16:58:56;;;;;;;;;;;9.60;77.70;;;7.93;43.55;102476.41;2570645;30;136739;-41
2022/02/28 17:01:24;;;;;;;;;;;9.50;76.20;;;7.82;43.83;102476.59;2569871;30;138367;-41
2022/02/28 17:03:53;;;;;;;;;;;9.40;77.00;;;7.71;44.71;102477.69;2569145;30;137884;-41
2022/02/28 17:06:21;;;;;;;;;;;9.30;77.90;;;7.66;45.35;102482.72;2570137;30;138983;-41
2022/02/28 17:08:48;;;;;;;;;;;9.20;78.90;;;7.61;45.29;102485.91;2570269;30;137007;-42
2022/02/28 17:11:16;;;;;;;;;;;9.20;79.40;;;7.44;45.84;102469.41;2569399;30;138360;-41
2022/02/28 17:13:43;;;;;;;;;;;9.10;79.90;;;7.44;45.38;102479.44;2569309;30;137210;-41
2022/02/28 17:16:12;;;;;;;;;;;9.00;78.80;;;7.29;46.34;102479.03;2570571;30;137153;-41
2022/02/28 17:18:39;;;;;;;;;;;8.90;80.20;;;7.17;46.41;102475.69;2566657;30;137577;-41
2022/02/28 17:21:07;;;;;;;;;;;8.80;80.20;;;7.18;46.88;102477.41;2569338;30;137329;-41
2022/02/28 17:23:35;;;;;;;;;;;8.70;81.00;;;7.17;46.29;102478.41;2569265;30;136766;-41
2022/02/28 17:26:03;;;;;;;;;;;8.70;80.40;;;7.06;46.25;102479.44;2568022;30;138450;-41
2022/02/28 17:28:31;;;;;;;;;;;8.60;80.10;;;7.01;46.61;102477.19;2568122;30;137865;-41
2022/02/28 17:30:59;;;;;;;;;;;8.60;81.00;;;7.03;45.83;102469.75;2568668;30;137420;-41
2022/02/28 17:33:28;;;;;;;;;;;8.60;80.30;;;6.90;47.04;102477.38;2569387;30;136892;-41
2022/02/28 17:35:57;;;;;;;;;;;8.50;81.50;;;6.86;46.29;102484.94;2569830;30;139223;-41